Forside
METAR-TAF:

METAR-TAF

Lufthavne :

Teheran, Iran

Breddekreds: 35-41N, længdekreds: 051-21E, højde: 1204 m

Aktuelle vejr

Denne rapport blev lavet for 18 minutter siden, kl. 02:30 UTC
Vind 8 kt fra vestsydvest
Temperatur 24°C
Fugtighed 36%
Tryk 1015 hPa
Sigt 10 km eller mere
ingen skyer under 1500m og ingen cumulonimbus

METAR: OIII 160230Z 24008KT CAVOK 24/08 Q1015 A2998

Tid: 07:18 (02:48 UTC)

Vejrudsigter

Denne rapport blev lavet for 3 timer og 18 minutter siden, kl. 23:30 UTC
Foreløbig gælder fra 16 på 00 UTC til 17 på 06 UTC
Vind 8 kt fra sydsydøst
Sigt 10 km eller mere
ingen skyer under 1500m og ingen cumulonimbus
Midlertidig
fra 16 på 12 UTC til 16 på 16 UTC
Vind 16 kt fra østsydøst

TAF: OIII 152330Z 1600/1706 15004MPS CAVOK TEMPO 1612/1616 12008MPS

Vejrobservationer og prognoser fra mere end 4000 lufthavne (METAR og TAF).

De gule og røde prikker repræsenterer de meteorologiske stationer.

Flyt musen over at se navnet på stationen.

Så klik over at se vejr observationer og prognoser.

At skifte det kort: Klik på de grønne knapper med et sort kors for at zoome ind; på den grønne knap med en bindestreg for at zoome ud; eller på de grønne pile for tilstødende kort.


METAR-TAF: